sensor_id;sensor_type;location;lat;lon;timestamp;P1;durP1;ratioP1;P2;durP2;ratioP2
13028;SDS011;6581;42.662;23.402;2024-03-22T00:01:44;17.55;;;8.23;;
13028;SDS011;6581;42.662;23.402;2024-03-22T00:04:09;20.35;;;9.05;;
13028;SDS011;6581;42.662;23.402;2024-03-22T00:06:35;17.45;;;8.35;;
13028;SDS011;6581;42.662;23.402;2024-03-22T00:09:01;20.52;;;8.07;;
13028;SDS011;6581;42.662;23.402;2024-03-22T00:11:26;25.23;;;8.95;;
13028;SDS011;6581;42.662;23.402;2024-03-22T00:13:52;17.90;;;8.27;;
13028;SDS011;6581;42.662;23.402;2024-03-22T00:16:17;23.88;;;9.93;;
13028;SDS011;6581;42.662;23.402;2024-03-22T00:18:43;17.80;;;8.55;;
13028;SDS011;6581;42.662;23.402;2024-03-22T00:21:08;24.02;;;9.30;;
13028;SDS011;6581;42.662;23.402;2024-03-22T00:23:34;20.83;;;8.85;;
13028;SDS011;6581;42.662;23.402;2024-03-22T00:25:59;14.23;;;7.55;;
13028;SDS011;6581;42.662;23.402;2024-03-22T00:28:25;15.55;;;6.50;;
13028;SDS011;6581;42.662;23.402;2024-03-22T00:30:50;12.43;;;6.20;;
13028;SDS011;6581;42.662;23.402;2024-03-22T00:33:16;15.13;;;7.07;;
13028;SDS011;6581;42.662;23.402;2024-03-22T00:35:41;15.90;;;6.30;;
13028;SDS011;6581;42.662;23.402;2024-03-22T00:38:07;14.60;;;6.47;;
13028;SDS011;6581;42.662;23.402;2024-03-22T00:40:32;18.60;;;5.80;;
13028;SDS011;6581;42.662;23.402;2024-03-22T00:42:58;13.73;;;4.75;;
13028;SDS011;6581;42.662;23.402;2024-03-22T00:45:24;7.40;;;3.15;;
13028;SDS011;6581;42.662;23.402;2024-03-22T00:47:49;8.05;;;3.25;;
13028;SDS011;6581;42.662;23.402;2024-03-22T00:50:15;11.10;;;3.25;;
13028;SDS011;6581;42.662;23.402;2024-03-22T00:52:40;5.30;;;2.78;;
13028;SDS011;6581;42.662;23.402;2024-03-22T00:55:06;6.22;;;3.10;;
13028;SDS011;6581;42.662;23.402;2024-03-22T00:57:32;7.88;;;4.03;;
13028;SDS011;6581;42.662;23.402;2024-03-22T00:59:58;3.45;;;1.65;;
13028;SDS011;6581;42.662;23.402;2024-03-22T01:02:23;6.25;;;2.80;;
13028;SDS011;6581;42.662;23.402;2024-03-22T01:04:49;6.72;;;4.50;;
13028;SDS011;6581;42.662;23.402;2024-03-22T01:07:15;6.53;;;3.33;;
13028;SDS011;6581;42.662;23.402;2024-03-22T01:09:40;7.32;;;2.85;;
13028;SDS011;6581;42.662;23.402;2024-03-22T01:12:06;4.88;;;2.70;;
13028;SDS011;6581;42.662;23.402;2024-03-22T01:14:32;6.97;;;3.42;;
13028;SDS011;6581;42.662;23.402;2024-03-22T01:16:57;6.93;;;3.05;;
13028;SDS011;6581;42.662;23.402;2024-03-22T01:19:23;6.43;;;3.47;;
13028;SDS011;6581;42.662;23.402;2024-03-22T01:21:48;7.32;;;3.67;;
13028;SDS011;6581;42.662;23.402;2024-03-22T01:24:14;7.40;;;3.50;;
13028;SDS011;6581;42.662;23.402;2024-03-22T01:26:40;7.80;;;3.60;;
13028;SDS011;6581;42.662;23.402;2024-03-22T01:29:05;8.43;;;4.00;;
13028;SDS011;6581;42.662;23.402;2024-03-22T01:31:31;8.95;;;3.58;;
13028;SDS011;6581;42.662;23.402;2024-03-22T01:33:56;10.68;;;3.70;;
13028;SDS011;6581;42.662;23.402;2024-03-22T01:36:22;9.00;;;3.92;;
13028;SDS011;6581;42.662;23.402;2024-03-22T01:38:47;10.80;;;4.85;;
13028;SDS011;6581;42.662;23.402;2024-03-22T01:41:13;12.80;;;5.00;;
13028;SDS011;6581;42.662;23.402;2024-03-22T01:43:38;9.15;;;4.55;;
13028;SDS011;6581;42.662;23.402;2024-03-22T01:46:04;10.00;;;4.43;;
13028;SDS011;6581;42.662;23.402;2024-03-22T01:48:30;14.60;;;4.85;;
13028;SDS011;6581;42.662;23.402;2024-03-22T01:50:57;10.30;;;5.15;;
13028;SDS011;6581;42.662;23.402;2024-03-22T01:53:22;12.30;;;5.72;;
13028;SDS011;6581;42.662;23.402;2024-03-22T01:55:48;10.48;;;4.78;;
13028;SDS011;6581;42.662;23.402;2024-03-22T01:58:14;9.95;;;4.97;;
13028;SDS011;6581;42.662;23.402;2024-03-22T02:00:39;14.77;;;4.93;;
13028;SDS011;6581;42.662;23.402;2024-03-22T02:03:05;13.23;;;5.28;;
13028;SDS011;6581;42.662;23.402;2024-03-22T02:05:31;15.07;;;6.30;;
13028;SDS011;6581;42.662;23.402;2024-03-22T02:07:57;16.20;;;6.20;;
13028;SDS011;6581;42.662;23.402;2024-03-22T02:10:22;12.55;;;5.57;;
13028;SDS011;6581;42.662;23.402;2024-03-22T02:12:47;12.77;;;6.07;;
13028;SDS011;6581;42.662;23.402;2024-03-22T02:15:13;14.18;;;6.65;;
13028;SDS011;6581;42.662;23.402;2024-03-22T02:17:39;12.10;;;6.10;;
13028;SDS011;6581;42.662;23.402;2024-03-22T02:20:04;14.98;;;6.10;;
13028;SDS011;6581;42.662;23.402;2024-03-22T02:22:31;10.43;;;5.00;;
13028;SDS011;6581;42.662;23.402;2024-03-22T02:24:56;12.48;;;6.18;;
13028;SDS011;6581;42.662;23.402;2024-03-22T02:27:22;13.20;;;6.35;;
13028;SDS011;6581;42.662;23.402;2024-03-22T02:29:48;11.43;;;5.85;;
13028;SDS011;6581;42.662;23.402;2024-03-22T02:32:13;16.92;;;7.65;;
13028;SDS011;6581;42.662;23.402;2024-03-22T02:34:39;16.70;;;6.93;;
13028;SDS011;6581;42.662;23.402;2024-03-22T02:37:04;18.05;;;6.97;;
13028;SDS011;6581;42.662;23.402;2024-03-22T02:39:30;15.38;;;7.22;;
13028;SDS011;6581;42.662;23.402;2024-03-22T02:41:55;18.13;;;6.70;;
13028;SDS011;6581;42.662;23.402;2024-03-22T02:44:21;14.35;;;7.35;;
13028;SDS011;6581;42.662;23.402;2024-03-22T02:46:46;15.35;;;5.68;;
13028;SDS011;6581;42.662;23.402;2024-03-22T02:49:13;11.73;;;5.30;;
13028;SDS011;6581;42.662;23.402;2024-03-22T02:51:39;12.98;;;5.53;;
13028;SDS011;6581;42.662;23.402;2024-03-22T02:54:04;13.02;;;5.50;;
13028;SDS011;6581;42.662;23.402;2024-03-22T02:56:30;16.75;;;6.97;;
13028;SDS011;6581;42.662;23.402;2024-03-22T02:58:56;13.52;;;6.18;;
13028;SDS011;6581;42.662;23.402;2024-03-22T03:01:21;11.57;;;6.63;;
13028;SDS011;6581;42.662;23.402;2024-03-22T03:03:47;15.00;;;7.22;;
13028;SDS011;6581;42.662;23.402;2024-03-22T03:06:12;18.33;;;7.13;;
13028;SDS011;6581;42.662;23.402;2024-03-22T03:08:39;17.95;;;7.95;;
13028;SDS011;6581;42.662;23.402;2024-03-22T03:11:04;16.85;;;8.10;;
13028;SDS011;6581;42.662;23.402;2024-03-22T03:13:30;16.02;;;8.15;;
13028;SDS011;6581;42.662;23.402;2024-03-22T03:15:56;13.60;;;6.80;;
13028;SDS011;6581;42.662;23.402;2024-03-22T03:18:22;12.15;;;6.35;;
13028;SDS011;6581;42.662;23.402;2024-03-22T03:20:47;16.23;;;6.85;;
13028;SDS011;6581;42.662;23.402;2024-03-22T03:23:13;12.95;;;6.28;;
13028;SDS011;6581;42.662;23.402;2024-03-22T03:25:38;8.88;;;5.75;;
13028;SDS011;6581;42.662;23.402;2024-03-22T03:28:04;15.77;;;6.57;;
13028;SDS011;6581;42.662;23.402;2024-03-22T03:30:29;12.00;;;6.15;;
13028;SDS011;6581;42.662;23.402;2024-03-22T03:32:55;16.17;;;6.32;;
13028;SDS011;6581;42.662;23.402;2024-03-22T03:35:20;13.73;;;6.88;;
13028;SDS011;6581;42.662;23.402;2024-03-22T03:37:46;15.18;;;6.75;;
13028;SDS011;6581;42.662;23.402;2024-03-22T03:40:11;26.20;;;9.10;;
13028;SDS011;6581;42.662;23.402;2024-03-22T03:42:37;24.20;;;9.35;;
13028;SDS011;6581;42.662;23.402;2024-03-22T03:45:02;23.52;;;9.48;;
13028;SDS011;6581;42.662;23.402;2024-03-22T03:47:28;21.88;;;9.40;;
13028;SDS011;6581;42.662;23.402;2024-03-22T03:49:53;20.77;;;8.63;;
13028;SDS011;6581;42.662;23.402;2024-03-22T03:52:19;21.70;;;9.23;;
13028;SDS011;6581;42.662;23.402;2024-03-22T03:54:44;21.73;;;7.93;;
13028;SDS011;6581;42.662;23.402;2024-03-22T03:57:10;20.65;;;8.57;;
13028;SDS011;6581;42.662;23.402;2024-03-22T03:59:35;16.73;;;5.93;;
13028;SDS011;6581;42.662;23.402;2024-03-22T04:02:01;18.38;;;6.22;;
13028;SDS011;6581;42.662;23.402;2024-03-22T04:04:26;13.95;;;6.97;;
13028;SDS011;6581;42.662;23.402;2024-03-22T04:06:52;14.52;;;6.65;;
13028;SDS011;6581;42.662;23.402;2024-03-22T04:09:17;18.80;;;7.90;;
13028;SDS011;6581;42.662;23.402;2024-03-22T04:11:43;13.98;;;5.88;;
13028;SDS011;6581;42.662;23.402;2024-03-22T04:14:09;11.82;;;5.65;;
13028;SDS011;6581;42.662;23.402;2024-03-22T04:16:34;17.08;;;7.22;;
13028;SDS011;6581;42.662;23.402;2024-03-22T04:19:00;16.63;;;6.30;;
13028;SDS011;6581;42.662;23.402;2024-03-22T04:21:25;11.48;;;5.55;;
13028;SDS011;6581;42.662;23.402;2024-03-22T04:23:51;14.88;;;5.15;;
13028;SDS011;6581;42.662;23.402;2024-03-22T04:26:16;14.52;;;5.40;;
13028;SDS011;6581;42.662;23.402;2024-03-22T04:28:42;11.30;;;4.65;;
13028;SDS011;6581;42.662;23.402;2024-03-22T04:31:07;14.75;;;5.18;;
13028;SDS011;6581;42.662;23.402;2024-03-22T04:33:34;11.15;;;4.50;;
13028;SDS011;6581;42.662;23.402;2024-03-22T04:36:00;9.95;;;4.75;;
13028;SDS011;6581;42.662;23.402;2024-03-22T04:38:26;13.15;;;5.03;;
13028;SDS011;6581;42.662;23.402;2024-03-22T04:40:52;11.40;;;4.72;;
13028;SDS011;6581;42.662;23.402;2024-03-22T04:43:20;11.35;;;5.55;;
13028;SDS011;6581;42.662;23.402;2024-03-22T04:45:46;15.38;;;5.78;;
13028;SDS011;6581;42.662;23.402;2024-03-22T04:48:13;19.83;;;6.80;;
13028;SDS011;6581;42.662;23.402;2024-03-22T04:50:40;16.60;;;7.03;;
13028;SDS011;6581;42.662;23.402;2024-03-22T04:53:05;15.50;;;6.85;;
13028;SDS011;6581;42.662;23.402;2024-03-22T04:55:34;15.20;;;6.72;;
13028;SDS011;6581;42.662;23.402;2024-03-22T04:58:03;17.95;;;8.07;;
13028;SDS011;6581;42.662;23.402;2024-03-22T05:00:28;20.85;;;9.07;;
13028;SDS011;6581;42.662;23.402;2024-03-22T05:02:54;23.95;;;9.30;;
13028;SDS011;6581;42.662;23.402;2024-03-22T05:05:20;27.08;;;10.82;;
13028;SDS011;6581;42.662;23.402;2024-03-22T05:07:45;19.10;;;8.85;;
13028;SDS011;6581;42.662;23.402;2024-03-22T05:10:11;22.52;;;10.82;;
13028;SDS011;6581;42.662;23.402;2024-03-22T05:12:37;30.30;;;11.23;;
13028;SDS011;6581;42.662;23.402;2024-03-22T05:15:03;25.88;;;9.57;;
13028;SDS011;6581;42.662;23.402;2024-03-22T05:17:29;31.40;;;11.77;;
13028;SDS011;6581;42.662;23.402;2024-03-22T05:19:57;23.67;;;11.00;;
13028;SDS011;6581;42.662;23.402;2024-03-22T05:22:25;24.90;;;11.43;;
13028;SDS011;6581;42.662;23.402;2024-03-22T05:24:51;18.80;;;9.40;;
13028;SDS011;6581;42.662;23.402;2024-03-22T05:27:17;10.18;;;4.60;;
13028;SDS011;6581;42.662;23.402;2024-03-22T05:29:43;11.50;;;4.75;;
13028;SDS011;6581;42.662;23.402;2024-03-22T05:32:09;9.13;;;4.55;;
13028;SDS011;6581;42.662;23.402;2024-03-22T05:34:35;10.25;;;4.28;;
13028;SDS011;6581;42.662;23.402;2024-03-22T05:37:01;7.60;;;4.70;;
13028;SDS011;6581;42.662;23.402;2024-03-22T05:39:27;11.80;;;4.35;;
13028;SDS011;6581;42.662;23.402;2024-03-22T05:41:53;8.00;;;4.28;;
13028;SDS011;6581;42.662;23.402;2024-03-22T05:44:19;5.72;;;3.20;;
13028;SDS011;6581;42.662;23.402;2024-03-22T05:46:48;7.32;;;2.58;;
13028;SDS011;6581;42.662;23.402;2024-03-22T05:49:13;9.25;;;4.65;;
13028;SDS011;6581;42.662;23.402;2024-03-22T05:51:39;12.68;;;4.18;;
13028;SDS011;6581;42.662;23.402;2024-03-22T05:54:04;8.85;;;4.18;;
13028;SDS011;6581;42.662;23.402;2024-03-22T05:56:30;11.57;;;4.43;;
13028;SDS011;6581;42.662;23.402;2024-03-22T05:58:56;9.68;;;4.53;;
13028;SDS011;6581;42.662;23.402;2024-03-22T06:01:21;9.23;;;4.57;;
13028;SDS011;6581;42.662;23.402;2024-03-22T06:03:47;16.70;;;5.22;;
13028;SDS011;6581;42.662;23.402;2024-03-22T06:06:13;10.48;;;4.70;;
13028;SDS011;6581;42.662;23.402;2024-03-22T06:08:38;9.45;;;4.78;;
13028;SDS011;6581;42.662;23.402;2024-03-22T06:11:05;18.67;;;7.32;;
13028;SDS011;6581;42.662;23.402;2024-03-22T06:13:32;20.85;;;11.25;;
13028;SDS011;6581;42.662;23.402;2024-03-22T06:15:58;12.13;;;5.57;;
13028;SDS011;6581;42.662;23.402;2024-03-22T06:18:24;12.32;;;4.90;;
13028;SDS011;6581;42.662;23.402;2024-03-22T06:20:49;9.82;;;4.38;;
13028;SDS011;6581;42.662;23.402;2024-03-22T06:23:15;9.75;;;5.22;;
13028;SDS011;6581;42.662;23.402;2024-03-22T06:25:40;12.02;;;5.45;;
13028;SDS011;6581;42.662;23.402;2024-03-22T06:28:06;12.90;;;5.55;;
13028;SDS011;6581;42.662;23.402;2024-03-22T06:30:31;12.52;;;5.47;;
13028;SDS011;6581;42.662;23.402;2024-03-22T06:32:57;15.18;;;6.38;;
13028;SDS011;6581;42.662;23.402;2024-03-22T06:35:22;22.35;;;7.57;;
13028;SDS011;6581;42.662;23.402;2024-03-22T06:37:48;23.58;;;8.32;;
13028;SDS011;6581;42.662;23.402;2024-03-22T06:40:13;16.98;;;7.50;;
13028;SDS011;6581;42.662;23.402;2024-03-22T06:42:39;17.85;;;7.90;;
13028;SDS011;6581;42.662;23.402;2024-03-22T06:45:05;19.65;;;8.32;;
13028;SDS011;6581;42.662;23.402;2024-03-22T06:47:31;20.65;;;8.35;;
13028;SDS011;6581;42.662;23.402;2024-03-22T06:49:57;22.85;;;8.77;;
13028;SDS011;6581;42.662;23.402;2024-03-22T06:52:23;18.33;;;8.50;;
13028;SDS011;6581;42.662;23.402;2024-03-22T06:54:48;13.98;;;6.78;;
13028;SDS011;6581;42.662;23.402;2024-03-22T06:57:14;23.77;;;8.10;;
13028;SDS011;6581;42.662;23.402;2024-03-22T06:59:39;16.55;;;7.57;;
13028;SDS011;6581;42.662;23.402;2024-03-22T07:02:05;19.25;;;8.13;;
13028;SDS011;6581;42.662;23.402;2024-03-22T07:04:30;17.63;;;6.65;;
13028;SDS011;6581;42.662;23.402;2024-03-22T07:06:56;13.98;;;6.97;;
13028;SDS011;6581;42.662;23.402;2024-03-22T07:09:21;19.05;;;6.75;;
13028;SDS011;6581;42.662;23.402;2024-03-22T07:11:47;16.38;;;7.28;;
13028;SDS011;6581;42.662;23.402;2024-03-22T07:14:13;21.27;;;6.85;;
13028;SDS011;6581;42.662;23.402;2024-03-22T07:16:39;13.25;;;6.32;;
13028;SDS011;6581;42.662;23.402;2024-03-22T07:19:04;16.80;;;7.00;;
13028;SDS011;6581;42.662;23.402;2024-03-22T07:21:30;21.10;;;7.72;;
13028;SDS011;6581;42.662;23.402;2024-03-22T07:23:56;17.67;;;6.90;;
13028;SDS011;6581;42.662;23.402;2024-03-22T07:26:22;15.80;;;6.53;;
13028;SDS011;6581;42.662;23.402;2024-03-22T07:28:47;15.05;;;7.05;;
13028;SDS011;6581;42.662;23.402;2024-03-22T07:31:13;14.10;;;5.90;;
13028;SDS011;6581;42.662;23.402;2024-03-22T07:33:39;14.82;;;6.25;;
13028;SDS011;6581;42.662;23.402;2024-03-22T07:36:05;11.30;;;5.97;;
13028;SDS011;6581;42.662;23.402;2024-03-22T07:38:31;13.52;;;5.72;;
13028;SDS011;6581;42.662;23.402;2024-03-22T07:40:57;11.48;;;5.82;;
13028;SDS011;6581;42.662;23.402;2024-03-22T07:43:22;8.02;;;3.67;;
13028;SDS011;6581;42.662;23.402;2024-03-22T07:45:48;7.70;;;3.50;;
13028;SDS011;6581;42.662;23.402;2024-03-22T07:48:14;6.35;;;3.83;;
13028;SDS011;6581;42.662;23.402;2024-03-22T07:50:40;8.00;;;4.40;;
13028;SDS011;6581;42.662;23.402;2024-03-22T07:53:06;10.70;;;5.22;;
13028;SDS011;6581;42.662;23.402;2024-03-22T07:55:31;4.70;;;2.42;;
13028;SDS011;6581;42.662;23.402;2024-03-22T07:57:56;6.88;;;3.05;;
13028;SDS011;6581;42.662;23.402;2024-03-22T08:00:22;10.50;;;3.70;;
13028;SDS011;6581;42.662;23.402;2024-03-22T08:02:50;5.90;;;3.30;;
13028;SDS011;6581;42.662;23.402;2024-03-22T08:05:16;5.32;;;2.70;;
13028;SDS011;6581;42.662;23.402;2024-03-22T08:07:44;6.95;;;2.72;;
13028;SDS011;6581;42.662;23.402;2024-03-22T08:10:09;6.50;;;2.55;;
13028;SDS011;6581;42.662;23.402;2024-03-22T08:12:35;4.82;;;2.95;;
13028;SDS011;6581;42.662;23.402;2024-03-22T08:15:01;5.63;;;2.95;;
13028;SDS011;6581;42.662;23.402;2024-03-22T08:17:27;4.57;;;2.53;;
13028;SDS011;6581;42.662;23.402;2024-03-22T08:19:52;4.82;;;2.88;;
13028;SDS011;6581;42.662;23.402;2024-03-22T08:22:18;6.15;;;3.05;;
13028;SDS011;6581;42.662;23.402;2024-03-22T08:24:44;6.07;;;2.92;;
13028;SDS011;6581;42.662;23.402;2024-03-22T08:27:09;4.65;;;2.53;;
13028;SDS011;6581;42.662;23.402;2024-03-22T08:29:35;6.45;;;3.20;;
13028;SDS011;6581;42.662;23.402;2024-03-22T08:32:00;6.28;;;2.95;;
13028;SDS011;6581;42.662;23.402;2024-03-22T08:34:29;6.15;;;3.25;;
13028;SDS011;6581;42.662;23.402;2024-03-22T08:36:55;5.45;;;2.90;;
13028;SDS011;6581;42.662;23.402;2024-03-22T08:39:20;5.20;;;2.63;;
13028;SDS011;6581;42.662;23.402;2024-03-22T08:41:46;7.18;;;3.38;;
13028;SDS011;6581;42.662;23.402;2024-03-22T08:44:12;7.32;;;2.83;;
13028;SDS011;6581;42.662;23.402;2024-03-22T08:46:37;6.57;;;2.88;;
13028;SDS011;6581;42.662;23.402;2024-03-22T08:49:03;5.65;;;3.17;;
13028;SDS011;6581;42.662;23.402;2024-03-22T08:51:28;6.65;;;2.85;;
13028;SDS011;6581;42.662;23.402;2024-03-22T08:53:54;6.60;;;3.05;;
13028;SDS011;6581;42.662;23.402;2024-03-22T08:56:20;6.72;;;2.95;;
13028;SDS011;6581;42.662;23.402;2024-03-22T08:58:45;5.05;;;2.67;;
13028;SDS011;6581;42.662;23.402;2024-03-22T09:01:11;4.07;;;2.15;;
13028;SDS011;6581;42.662;23.402;2024-03-22T09:03:36;5.10;;;2.60;;
13028;SDS011;6581;42.662;23.402;2024-03-22T09:06:02;4.40;;;2.05;;
13028;SDS011;6581;42.662;23.402;2024-03-22T09:08:28;8.82;;;2.97;;
13028;SDS011;6581;42.662;23.402;2024-03-22T09:10:54;6.35;;;2.42;;
13028;SDS011;6581;42.662;23.402;2024-03-22T09:13:20;3.72;;;2.40;;
13028;SDS011;6581;42.662;23.402;2024-03-22T09:15:45;5.28;;;2.60;;
13028;SDS011;6581;42.662;23.402;2024-03-22T09:18:11;4.47;;;2.30;;
13028;SDS011;6581;42.662;23.402;2024-03-22T09:20:36;4.85;;;2.53;;
13028;SDS011;6581;42.662;23.402;2024-03-22T09:23:02;5.97;;;2.85;;
13028;SDS011;6581;42.662;23.402;2024-03-22T09:25:29;6.70;;;2.65;;
13028;SDS011;6581;42.662;23.402;2024-03-22T09:27:54;6.38;;;2.67;;
13028;SDS011;6581;42.662;23.402;2024-03-22T09:30:20;6.55;;;3.13;;
13028;SDS011;6581;42.662;23.402;2024-03-22T09:32:45;4.97;;;2.55;;
13028;SDS011;6581;42.662;23.402;2024-03-22T09:35:11;5.47;;;2.95;;
13028;SDS011;6581;42.662;23.402;2024-03-22T09:37:39;6.03;;;2.80;;
13028;SDS011;6581;42.662;23.402;2024-03-22T09:40:06;5.45;;;2.78;;
13028;SDS011;6581;42.662;23.402;2024-03-22T09:42:32;6.05;;;2.85;;
13028;SDS011;6581;42.662;23.402;2024-03-22T09:45:04;6.50;;;2.63;;
13028;SDS011;6581;42.662;23.402;2024-03-22T09:47:32;6.35;;;3.40;;
13028;SDS011;6581;42.662;23.402;2024-03-22T09:49:58;5.97;;;2.53;;
13028;SDS011;6581;42.662;23.402;2024-03-22T09:52:25;6.03;;;2.53;;
13028;SDS011;6581;42.662;23.402;2024-03-22T09:54:52;5.70;;;3.33;;
13028;SDS011;6581;42.662;23.402;2024-03-22T09:57:18;6.70;;;3.50;;
13028;SDS011;6581;42.662;23.402;2024-03-22T09:59:44;5.18;;;2.60;;
13028;SDS011;6581;42.662;23.402;2024-03-22T10:02:11;5.57;;;3.40;;
13028;SDS011;6581;42.662;23.402;2024-03-22T10:04:37;7.32;;;3.00;;
13028;SDS011;6581;42.662;23.402;2024-03-22T10:07:03;6.63;;;2.95;;
13028;SDS011;6581;42.662;23.402;2024-03-22T10:09:29;7.53;;;3.47;;
13028;SDS011;6581;42.662;23.402;2024-03-22T10:11:56;5.30;;;2.55;;
13028;SDS011;6581;42.662;23.402;2024-03-22T10:14:22;6.60;;;2.67;;
13028;SDS011;6581;42.662;23.402;2024-03-22T10:16:50;5.28;;;2.47;;
13028;SDS011;6581;42.662;23.402;2024-03-22T10:19:18;5.22;;;2.60;;
13028;SDS011;6581;42.662;23.402;2024-03-22T10:21:47;5.95;;;2.55;;
13028;SDS011;6581;42.662;23.402;2024-03-22T10:24:24;5.00;;;2.63;;
13028;SDS011;6581;42.662;23.402;2024-03-22T10:26:50;5.35;;;2.65;;
13028;SDS011;6581;42.662;23.402;2024-03-22T10:29:15;5.38;;;2.38;;
13028;SDS011;6581;42.662;23.402;2024-03-22T10:31:41;5.18;;;2.60;;
13028;SDS011;6581;42.662;23.402;2024-03-22T10:34:07;4.30;;;2.78;;
13028;SDS011;6581;42.662;23.402;2024-03-22T10:36:34;5.85;;;2.63;;
13028;SDS011;6581;42.662;23.402;2024-03-22T10:39:00;7.30;;;3.10;;
13028;SDS011;6581;42.662;23.402;2024-03-22T10:43:54;3.70;;;2.33;;
13028;SDS011;6581;42.662;23.402;2024-03-22T10:46:20;5.57;;;3.03;;
13028;SDS011;6581;42.662;23.402;2024-03-22T10:48:46;4.95;;;2.38;;
13028;SDS011;6581;42.662;23.402;2024-03-22T10:51:12;4.40;;;2.45;;
13028;SDS011;6581;42.662;23.402;2024-03-22T10:53:39;4.55;;;2.63;;
13028;SDS011;6581;42.662;23.402;2024-03-22T10:56:06;4.22;;;2.22;;
13028;SDS011;6581;42.662;23.402;2024-03-22T10:58:34;6.03;;;2.60;;
13028;SDS011;6581;42.662;23.402;2024-03-22T11:01:04;6.55;;;2.40;;
13028;SDS011;6581;42.662;23.402;2024-03-22T11:03:30;4.88;;;2.13;;
13028;SDS011;6581;42.662;23.402;2024-03-22T11:05:56;4.57;;;2.08;;
13028;SDS011;6581;42.662;23.402;2024-03-22T11:10:58;5.38;;;2.95;;
13028;SDS011;6581;42.662;23.402;2024-03-22T11:13:37;8.63;;;2.72;;
13028;SDS011;6581;42.662;23.402;2024-03-22T11:16:04;5.25;;;2.50;;
13028;SDS011;6581;42.662;23.402;2024-03-22T11:18:30;6.07;;;2.63;;
13028;SDS011;6581;42.662;23.402;2024-03-22T11:20:56;5.35;;;3.05;;
13028;SDS011;6581;42.662;23.402;2024-03-22T11:23:21;6.55;;;2.88;;
13028;SDS011;6581;42.662;23.402;2024-03-22T11:25:47;4.43;;;2.72;;
13028;SDS011;6581;42.662;23.402;2024-03-22T11:28:12;4.18;;;2.17;;
13028;SDS011;6581;42.662;23.402;2024-03-22T11:30:38;5.63;;;2.30;;
13028;SDS011;6581;42.662;23.402;2024-03-22T11:33:06;5.03;;;2.08;;
13028;SDS011;6581;42.662;23.402;2024-03-22T11:35:33;4.53;;;1.67;;
13028;SDS011;6581;42.662;23.402;2024-03-22T11:37:58;8.80;;;3.00;;
13028;SDS011;6581;42.662;23.402;2024-03-22T11:40:27;7.03;;;2.60;;
13028;SDS011;6581;42.662;23.402;2024-03-22T11:42:55;4.20;;;2.42;;
13028;SDS011;6581;42.662;23.402;2024-03-22T11:45:22;4.93;;;2.42;;
13028;SDS011;6581;42.662;23.402;2024-03-22T11:47:49;6.32;;;1.95;;
13028;SDS011;6581;42.662;23.402;2024-03-22T11:50:14;5.28;;;2.28;;
13028;SDS011;6581;42.662;23.402;2024-03-22T11:52:41;4.88;;;2.70;;
13028;SDS011;6581;42.662;23.402;2024-03-22T11:55:07;6.15;;;2.60;;
13028;SDS011;6581;42.662;23.402;2024-03-22T11:57:32;4.80;;;2.17;;
13028;SDS011;6581;42.662;23.402;2024-03-22T11:59:59;4.38;;;2.50;;
13028;SDS011;6581;42.662;23.402;2024-03-22T12:02:25;3.42;;;2.00;;
13028;SDS011;6581;42.662;23.402;2024-03-22T12:04:51;4.60;;;2.10;;
13028;SDS011;6581;42.662;23.402;2024-03-22T12:07:17;4.43;;;2.40;;
13028;SDS011;6581;42.662;23.402;2024-03-22T12:09:46;4.63;;;2.30;;
13028;SDS011;6581;42.662;23.402;2024-03-22T12:12:12;4.95;;;2.15;;
13028;SDS011;6581;42.662;23.402;2024-03-22T12:14:38;7.60;;;2.42;;
13028;SDS011;6581;42.662;23.402;2024-03-22T12:17:04;4.15;;;2.30;;
13028;SDS011;6581;42.662;23.402;2024-03-22T12:19:30;3.72;;;2.10;;
13028;SDS011;6581;42.662;23.402;2024-03-22T12:21:56;3.22;;;1.80;;
13028;SDS011;6581;42.662;23.402;2024-03-22T12:24:22;4.03;;;2.38;;
13028;SDS011;6581;42.662;23.402;2024-03-22T12:26:49;4.00;;;2.15;;
13028;SDS011;6581;42.662;23.402;2024-03-22T12:29:15;4.20;;;2.25;;
13028;SDS011;6581;42.662;23.402;2024-03-22T12:31:41;4.60;;;2.08;;
13028;SDS011;6581;42.662;23.402;2024-03-22T12:34:07;4.55;;;2.35;;
13028;SDS011;6581;42.662;23.402;2024-03-22T12:36:32;3.50;;;1.92;;
13028;SDS011;6581;42.662;23.402;2024-03-22T12:38:58;6.65;;;1.85;;
13028;SDS011;6581;42.662;23.402;2024-03-22T12:41:24;7.68;;;2.50;;
13028;SDS011;6581;42.662;23.402;2024-03-22T12:43:50;4.05;;;2.40;;
13028;SDS011;6581;42.662;23.402;2024-03-22T12:46:16;3.63;;;2.20;;
13028;SDS011;6581;42.662;23.402;2024-03-22T12:48:41;5.50;;;2.05;;
13028;SDS011;6581;42.662;23.402;2024-03-22T12:51:07;5.57;;;2.22;;
13028;SDS011;6581;42.662;23.402;2024-03-22T12:53:32;4.85;;;2.20;;
13028;SDS011;6581;42.662;23.402;2024-03-22T12:55:58;7.70;;;2.30;;
13028;SDS011;6581;42.662;23.402;2024-03-22T12:58:23;3.78;;;2.03;;
13028;SDS011;6581;42.662;23.402;2024-03-22T13:00:49;6.43;;;2.55;;
13028;SDS011;6581;42.662;23.402;2024-03-22T13:03:14;7.30;;;2.95;;
13028;SDS011;6581;42.662;23.402;2024-03-22T13:05:41;4.32;;;2.30;;
13028;SDS011;6581;42.662;23.402;2024-03-22T13:08:07;4.82;;;2.50;;
13028;SDS011;6581;42.662;23.402;2024-03-22T13:10:32;3.50;;;2.20;;
13028;SDS011;6581;42.662;23.402;2024-03-22T13:12:58;7.13;;;2.25;;
13028;SDS011;6581;42.662;23.402;2024-03-22T13:15:23;4.00;;;2.00;;
13028;SDS011;6581;42.662;23.402;2024-03-22T13:17:49;6.28;;;2.47;;
13028;SDS011;6581;42.662;23.402;2024-03-22T13:20:15;6.00;;;2.10;;
13028;SDS011;6581;42.662;23.402;2024-03-22T13:22:43;4.63;;;2.30;;
13028;SDS011;6581;42.662;23.402;2024-03-22T13:25:09;5.03;;;2.28;;
13028;SDS011;6581;42.662;23.402;2024-03-22T13:27:37;5.00;;;2.22;;
13028;SDS011;6581;42.662;23.402;2024-03-22T13:30:06;3.60;;;2.03;;
13028;SDS011;6581;42.662;23.402;2024-03-22T13:32:37;4.15;;;2.00;;
13028;SDS011;6581;42.662;23.402;2024-03-22T13:35:03;6.40;;;3.28;;
13028;SDS011;6581;42.662;23.402;2024-03-22T13:37:30;4.07;;;2.13;;
13028;SDS011;6581;42.662;23.402;2024-03-22T13:39:56;3.70;;;2.38;;
13028;SDS011;6581;42.662;23.402;2024-03-22T13:42:21;3.97;;;2.15;;
13028;SDS011;6581;42.662;23.402;2024-03-22T13:44:47;4.20;;;2.25;;
13028;SDS011;6581;42.662;23.402;2024-03-22T13:47:12;4.53;;;2.42;;
13028;SDS011;6581;42.662;23.402;2024-03-22T13:49:38;3.80;;;2.13;;
13028;SDS011;6581;42.662;23.402;2024-03-22T13:52:06;4.00;;;1.90;;
13028;SDS011;6581;42.662;23.402;2024-03-22T13:54:35;5.50;;;2.47;;
13028;SDS011;6581;42.662;23.402;2024-03-22T13:57:00;4.50;;;2.25;;
13028;SDS011;6581;42.662;23.402;2024-03-22T13:59:26;3.92;;;2.10;;
13028;SDS011;6581;42.662;23.402;2024-03-22T14:01:53;4.47;;;1.95;;
13028;SDS011;6581;42.662;23.402;2024-03-22T14:04:18;5.10;;;2.65;;
13028;SDS011;6581;42.662;23.402;2024-03-22T14:06:47;3.88;;;1.85;;
13028;SDS011;6581;42.662;23.402;2024-03-22T14:09:12;4.80;;;2.28;;
13028;SDS011;6581;42.662;23.402;2024-03-22T14:11:41;6.70;;;2.50;;
13028;SDS011;6581;42.662;23.402;2024-03-22T14:14:12;5.40;;;2.53;;
13028;SDS011;6581;42.662;23.402;2024-03-22T14:16:39;3.97;;;2.25;;
13028;SDS011;6581;42.662;23.402;2024-03-22T14:19:04;6.53;;;2.65;;
13028;SDS011;6581;42.662;23.402;2024-03-22T14:21:30;4.70;;;2.20;;
13028;SDS011;6581;42.662;23.402;2024-03-22T14:23:55;4.07;;;2.22;;
13028;SDS011;6581;42.662;23.402;2024-03-22T14:26:21;5.75;;;2.35;;
13028;SDS011;6581;42.662;23.402;2024-03-22T14:28:47;4.93;;;2.45;;
13028;SDS011;6581;42.662;23.402;2024-03-22T14:31:12;5.22;;;2.40;;
13028;SDS011;6581;42.662;23.402;2024-03-22T14:33:38;5.13;;;2.45;;
13028;SDS011;6581;42.662;23.402;2024-03-22T14:36:05;4.85;;;2.20;;
13028;SDS011;6581;42.662;23.402;2024-03-22T14:38:32;13.15;;;2.50;;